sensor_id;sensor_type;location;lat;lon;timestamp;P1;durP1;ratioP1;P2;durP2;ratioP2
10884;SDS011;5495;53.252;10.390;2022-08-03T00:00:31;3.90;;;3.50;;
10884;SDS011;5495;53.252;10.390;2022-08-03T00:02:59;6.43;;;3.57;;
10884;SDS011;5495;53.252;10.390;2022-08-03T00:05:26;3.90;;;3.30;;
10884;SDS011;5495;53.252;10.390;2022-08-03T00:07:55;3.97;;;3.63;;
10884;SDS011;5495;53.252;10.390;2022-08-03T00:10:22;5.70;;;3.53;;
10884;SDS011;5495;53.252;10.390;2022-08-03T00:12:50;3.97;;;3.13;;
10884;SDS011;5495;53.252;10.390;2022-08-03T00:15:18;3.87;;;3.33;;
10884;SDS011;5495;53.252;10.390;2022-08-03T00:17:46;4.00;;;3.57;;
10884;SDS011;5495;53.252;10.390;2022-08-03T00:20:15;4.00;;;3.57;;
10884;SDS011;5495;53.252;10.390;2022-08-03T00:22:43;4.07;;;3.63;;
10884;SDS011;5495;53.252;10.390;2022-08-03T00:25:12;5.33;;;4.00;;
10884;SDS011;5495;53.252;10.390;2022-08-03T00:27:39;4.00;;;3.70;;
10884;SDS011;5495;53.252;10.390;2022-08-03T00:30:07;6.17;;;4.17;;
10884;SDS011;5495;53.252;10.390;2022-08-03T00:32:35;4.37;;;3.67;;
10884;SDS011;5495;53.252;10.390;2022-08-03T00:35:02;5.97;;;3.57;;
10884;SDS011;5495;53.252;10.390;2022-08-03T00:37:30;4.63;;;4.00;;
10884;SDS011;5495;53.252;10.390;2022-08-03T00:39:58;6.57;;;4.20;;
10884;SDS011;5495;53.252;10.390;2022-08-03T00:42:26;5.20;;;3.87;;
10884;SDS011;5495;53.252;10.390;2022-08-03T00:44:54;4.20;;;3.70;;
10884;SDS011;5495;53.252;10.390;2022-08-03T00:47:22;4.30;;;3.80;;
10884;SDS011;5495;53.252;10.390;2022-08-03T00:49:49;5.10;;;4.23;;
10884;SDS011;5495;53.252;10.390;2022-08-03T00:52:18;4.27;;;3.73;;
10884;SDS011;5495;53.252;10.390;2022-08-03T00:54:47;6.63;;;4.10;;
10884;SDS011;5495;53.252;10.390;2022-08-03T00:57:15;5.17;;;4.00;;
10884;SDS011;5495;53.252;10.390;2022-08-03T00:59:46;4.93;;;3.43;;
10884;SDS011;5495;53.252;10.390;2022-08-03T01:02:14;5.33;;;4.17;;
10884;SDS011;5495;53.252;10.390;2022-08-03T01:04:41;4.90;;;4.13;;
10884;SDS011;5495;53.252;10.390;2022-08-03T01:07:19;4.40;;;3.90;;
10884;SDS011;5495;53.252;10.390;2022-08-03T01:09:54;5.40;;;4.00;;
10884;SDS011;5495;53.252;10.390;2022-08-03T01:12:28;6.27;;;3.87;;
10884;SDS011;5495;53.252;10.390;2022-08-03T01:15:05;4.43;;;4.03;;
10884;SDS011;5495;53.252;10.390;2022-08-03T01:17:40;4.40;;;4.00;;
10884;SDS011;5495;53.252;10.390;2022-08-03T01:20:14;6.33;;;4.10;;
10884;SDS011;5495;53.252;10.390;2022-08-03T01:22:47;5.00;;;4.53;;
10884;SDS011;5495;53.252;10.390;2022-08-03T01:25:32;4.60;;;4.20;;
10884;SDS011;5495;53.252;10.390;2022-08-03T01:28:11;4.80;;;4.40;;
10884;SDS011;5495;53.252;10.390;2022-08-03T01:30:58;6.93;;;4.30;;
10884;SDS011;5495;53.252;10.390;2022-08-03T01:33:28;6.17;;;4.30;;
10884;SDS011;5495;53.252;10.390;2022-08-03T01:36:06;4.93;;;4.33;;
10884;SDS011;5495;53.252;10.390;2022-08-03T01:38:36;4.60;;;3.97;;
10884;SDS011;5495;53.252;10.390;2022-08-03T01:41:10;4.97;;;4.47;;
10884;SDS011;5495;53.252;10.390;2022-08-03T01:43:41;4.50;;;4.20;;
10884;SDS011;5495;53.252;10.390;2022-08-03T01:46:14;6.70;;;4.30;;
10884;SDS011;5495;53.252;10.390;2022-08-03T01:48:45;5.07;;;4.23;;
10884;SDS011;5495;53.252;10.390;2022-08-03T01:51:14;4.23;;;3.83;;
10884;SDS011;5495;53.252;10.390;2022-08-03T01:53:43;4.90;;;4.47;;
10884;SDS011;5495;53.252;10.390;2022-08-03T01:56:14;4.83;;;4.10;;
10884;SDS011;5495;53.252;10.390;2022-08-03T01:58:43;4.03;;;3.70;;
10884;SDS011;5495;53.252;10.390;2022-08-03T02:01:15;4.03;;;3.73;;
10884;SDS011;5495;53.252;10.390;2022-08-03T02:03:43;4.63;;;4.20;;
10884;SDS011;5495;53.252;10.390;2022-08-03T02:06:12;5.57;;;4.07;;
10884;SDS011;5495;53.252;10.390;2022-08-03T02:08:41;4.73;;;4.20;;
10884;SDS011;5495;53.252;10.390;2022-08-03T02:11:10;4.20;;;3.70;;
10884;SDS011;5495;53.252;10.390;2022-08-03T02:13:38;5.00;;;4.50;;
10884;SDS011;5495;53.252;10.390;2022-08-03T02:16:07;4.27;;;3.87;;
10884;SDS011;5495;53.252;10.390;2022-08-03T02:18:37;4.63;;;4.10;;
10884;SDS011;5495;53.252;10.390;2022-08-03T02:21:06;8.43;;;4.30;;
10884;SDS011;5495;53.252;10.390;2022-08-03T02:23:35;4.07;;;3.67;;
10884;SDS011;5495;53.252;10.390;2022-08-03T02:26:04;4.63;;;4.23;;
10884;SDS011;5495;53.252;10.390;2022-08-03T02:28:36;4.47;;;4.00;;
10884;SDS011;5495;53.252;10.390;2022-08-03T02:31:11;7.53;;;4.30;;
10884;SDS011;5495;53.252;10.390;2022-08-03T02:33:53;6.23;;;4.17;;
10884;SDS011;5495;53.252;10.390;2022-08-03T02:36:24;4.70;;;3.90;;
10884;SDS011;5495;53.252;10.390;2022-08-03T02:38:55;5.00;;;4.37;;
10884;SDS011;5495;53.252;10.390;2022-08-03T02:41:27;7.90;;;4.10;;
10884;SDS011;5495;53.252;10.390;2022-08-03T02:43:58;4.53;;;4.10;;
10884;SDS011;5495;53.252;10.390;2022-08-03T02:46:30;6.80;;;4.40;;
10884;SDS011;5495;53.252;10.390;2022-08-03T02:49:01;5.17;;;3.87;;
10884;SDS011;5495;53.252;10.390;2022-08-03T02:51:31;7.23;;;4.17;;
10884;SDS011;5495;53.252;10.390;2022-08-03T02:54:01;5.57;;;4.07;;
10884;SDS011;5495;53.252;10.390;2022-08-03T02:56:29;4.90;;;4.40;;
10884;SDS011;5495;53.252;10.390;2022-08-03T02:58:57;5.03;;;4.03;;
10884;SDS011;5495;53.252;10.390;2022-08-03T03:01:26;6.50;;;4.27;;
10884;SDS011;5495;53.252;10.390;2022-08-03T03:03:55;5.40;;;3.90;;
10884;SDS011;5495;53.252;10.390;2022-08-03T03:06:25;4.93;;;4.33;;
10884;SDS011;5495;53.252;10.390;2022-08-03T03:08:53;5.53;;;4.30;;
10884;SDS011;5495;53.252;10.390;2022-08-03T03:11:22;6.67;;;4.20;;
10884;SDS011;5495;53.252;10.390;2022-08-03T03:13:50;4.47;;;4.07;;
10884;SDS011;5495;53.252;10.390;2022-08-03T03:16:19;4.90;;;4.43;;
10884;SDS011;5495;53.252;10.390;2022-08-03T03:18:47;4.93;;;3.83;;
10884;SDS011;5495;53.252;10.390;2022-08-03T03:21:16;4.60;;;4.10;;
10884;SDS011;5495;53.252;10.390;2022-08-03T03:23:47;5.83;;;4.17;;
10884;SDS011;5495;53.252;10.390;2022-08-03T03:26:16;5.73;;;4.43;;
10884;SDS011;5495;53.252;10.390;2022-08-03T03:28:44;4.70;;;4.03;;
10884;SDS011;5495;53.252;10.390;2022-08-03T03:31:12;4.90;;;4.33;;
10884;SDS011;5495;53.252;10.390;2022-08-03T03:33:39;4.83;;;4.07;;
10884;SDS011;5495;53.252;10.390;2022-08-03T03:36:07;4.70;;;4.40;;
10884;SDS011;5495;53.252;10.390;2022-08-03T03:38:35;4.30;;;3.90;;
10884;SDS011;5495;53.252;10.390;2022-08-03T03:41:04;4.40;;;4.00;;
10884;SDS011;5495;53.252;10.390;2022-08-03T03:43:32;4.30;;;3.90;;
10884;SDS011;5495;53.252;10.390;2022-08-03T03:46:00;5.53;;;4.23;;
10884;SDS011;5495;53.252;10.390;2022-08-03T03:48:28;4.50;;;4.10;;
10884;SDS011;5495;53.252;10.390;2022-08-03T03:50:56;5.30;;;4.60;;
10884;SDS011;5495;53.252;10.390;2022-08-03T03:53:24;5.70;;;4.13;;
10884;SDS011;5495;53.252;10.390;2022-08-03T03:55:52;4.20;;;3.80;;
10884;SDS011;5495;53.252;10.390;2022-08-03T03:58:24;4.47;;;4.07;;
10884;SDS011;5495;53.252;10.390;2022-08-03T04:00:51;4.20;;;3.83;;
10884;SDS011;5495;53.252;10.390;2022-08-03T04:03:19;7.07;;;4.10;;
10884;SDS011;5495;53.252;10.390;2022-08-03T04:05:46;4.23;;;3.93;;
10884;SDS011;5495;53.252;10.390;2022-08-03T04:08:31;4.77;;;4.00;;
10884;SDS011;5495;53.252;10.390;2022-08-03T04:11:17;5.07;;;4.03;;
10884;SDS011;5495;53.252;10.390;2022-08-03T04:13:49;8.93;;;4.07;;
10884;SDS011;5495;53.252;10.390;2022-08-03T04:16:21;4.30;;;3.90;;
10884;SDS011;5495;53.252;10.390;2022-08-03T04:18:53;5.23;;;4.63;;
10884;SDS011;5495;53.252;10.390;2022-08-03T04:21:24;5.00;;;4.37;;
10884;SDS011;5495;53.252;10.390;2022-08-03T04:23:52;5.10;;;4.57;;
10884;SDS011;5495;53.252;10.390;2022-08-03T04:26:24;6.37;;;4.30;;
10884;SDS011;5495;53.252;10.390;2022-08-03T04:28:56;4.23;;;3.87;;
10884;SDS011;5495;53.252;10.390;2022-08-03T04:31:25;4.37;;;3.97;;
10884;SDS011;5495;53.252;10.390;2022-08-03T04:33:54;5.00;;;4.60;;
10884;SDS011;5495;53.252;10.390;2022-08-03T04:36:25;4.90;;;4.47;;
10884;SDS011;5495;53.252;10.390;2022-08-03T04:38:59;4.63;;;4.23;;
10884;SDS011;5495;53.252;10.390;2022-08-03T04:41:30;4.87;;;4.27;;
10884;SDS011;5495;53.252;10.390;2022-08-03T04:44:01;5.33;;;4.27;;
10884;SDS011;5495;53.252;10.390;2022-08-03T04:46:33;4.60;;;4.17;;
10884;SDS011;5495;53.252;10.390;2022-08-03T04:49:04;5.60;;;4.83;;
10884;SDS011;5495;53.252;10.390;2022-08-03T04:51:32;5.33;;;4.50;;
10884;SDS011;5495;53.252;10.390;2022-08-03T04:54:02;5.00;;;4.40;;
10884;SDS011;5495;53.252;10.390;2022-08-03T04:56:31;7.30;;;4.40;;
10884;SDS011;5495;53.252;10.390;2022-08-03T04:58:59;4.83;;;4.43;;
10884;SDS011;5495;53.252;10.390;2022-08-03T05:01:28;5.40;;;4.27;;
10884;SDS011;5495;53.252;10.390;2022-08-03T05:03:58;4.73;;;4.23;;
10884;SDS011;5495;53.252;10.390;2022-08-03T05:06:27;4.97;;;4.47;;
10884;SDS011;5495;53.252;10.390;2022-08-03T05:08:54;6.43;;;4.70;;
10884;SDS011;5495;53.252;10.390;2022-08-03T05:11:22;7.27;;;4.50;;
10884;SDS011;5495;53.252;10.390;2022-08-03T05:13:50;5.00;;;4.50;;
10884;SDS011;5495;53.252;10.390;2022-08-03T05:16:19;5.43;;;4.53;;
10884;SDS011;5495;53.252;10.390;2022-08-03T05:18:50;4.60;;;4.20;;
10884;SDS011;5495;53.252;10.390;2022-08-03T05:21:18;5.10;;;4.60;;
10884;SDS011;5495;53.252;10.390;2022-08-03T05:23:45;5.40;;;4.40;;
10884;SDS011;5495;53.252;10.390;2022-08-03T05:26:13;4.27;;;3.87;;
10884;SDS011;5495;53.252;10.390;2022-08-03T05:28:40;5.73;;;4.37;;
10884;SDS011;5495;53.252;10.390;2022-08-03T05:31:08;6.60;;;4.40;;
10884;SDS011;5495;53.252;10.390;2022-08-03T05:33:39;4.60;;;4.20;;
10884;SDS011;5495;53.252;10.390;2022-08-03T05:36:10;6.97;;;4.53;;
10884;SDS011;5495;53.252;10.390;2022-08-03T05:38:38;4.80;;;4.40;;
10884;SDS011;5495;53.252;10.390;2022-08-03T05:41:05;4.63;;;4.23;;
10884;SDS011;5495;53.252;10.390;2022-08-03T05:43:33;5.60;;;3.80;;
10884;SDS011;5495;53.252;10.390;2022-08-03T05:46:00;4.43;;;3.80;;
10884;SDS011;5495;53.252;10.390;2022-08-03T05:48:28;4.70;;;4.30;;
10884;SDS011;5495;53.252;10.390;2022-08-03T05:50:57;4.50;;;4.10;;
10884;SDS011;5495;53.252;10.390;2022-08-03T05:53:25;5.53;;;4.23;;
10884;SDS011;5495;53.252;10.390;2022-08-03T05:55:53;4.47;;;3.53;;
10884;SDS011;5495;53.252;10.390;2022-08-03T05:58:21;5.30;;;4.07;;
10884;SDS011;5495;53.252;10.390;2022-08-03T06:00:49;4.70;;;4.30;;
10884;SDS011;5495;53.252;10.390;2022-08-03T06:03:16;6.33;;;4.00;;
10884;SDS011;5495;53.252;10.390;2022-08-03T06:05:44;6.47;;;3.80;;
10884;SDS011;5495;53.252;10.390;2022-08-03T06:08:13;5.60;;;3.97;;
10884;SDS011;5495;53.252;10.390;2022-08-03T06:10:41;5.50;;;3.60;;
10884;SDS011;5495;53.252;10.390;2022-08-03T06:13:09;4.77;;;3.70;;
10884;SDS011;5495;53.252;10.390;2022-08-03T06:15:37;4.63;;;3.80;;
10884;SDS011;5495;53.252;10.390;2022-08-03T06:18:04;4.97;;;3.90;;
10884;SDS011;5495;53.252;10.390;2022-08-03T06:20:32;4.60;;;3.97;;
10884;SDS011;5495;53.252;10.390;2022-08-03T06:22:59;4.43;;;3.80;;
10884;SDS011;5495;53.252;10.390;2022-08-03T06:25:29;5.60;;;3.97;;
10884;SDS011;5495;53.252;10.390;2022-08-03T06:27:58;4.73;;;4.00;;
10884;SDS011;5495;53.252;10.390;2022-08-03T06:30:26;5.50;;;3.97;;
10884;SDS011;5495;53.252;10.390;2022-08-03T06:32:54;4.10;;;3.70;;
10884;SDS011;5495;53.252;10.390;2022-08-03T06:35:22;4.23;;;3.70;;
10884;SDS011;5495;53.252;10.390;2022-08-03T06:37:52;4.03;;;3.63;;
10884;SDS011;5495;53.252;10.390;2022-08-03T06:40:20;4.47;;;3.57;;
10884;SDS011;5495;53.252;10.390;2022-08-03T06:42:56;3.97;;;3.60;;
10884;SDS011;5495;53.252;10.390;2022-08-03T06:45:25;3.97;;;3.60;;
10884;SDS011;5495;53.252;10.390;2022-08-03T06:47:58;4.30;;;3.90;;
10884;SDS011;5495;53.252;10.390;2022-08-03T06:50:27;4.10;;;3.70;;
10884;SDS011;5495;53.252;10.390;2022-08-03T06:52:55;3.97;;;3.50;;
10884;SDS011;5495;53.252;10.390;2022-08-03T06:55:22;4.67;;;3.70;;
10884;SDS011;5495;53.252;10.390;2022-08-03T06:57:50;4.10;;;3.70;;
10884;SDS011;5495;53.252;10.390;2022-08-03T07:00:19;3.93;;;3.53;;
10884;SDS011;5495;53.252;10.390;2022-08-03T07:02:47;4.10;;;3.70;;
10884;SDS011;5495;53.252;10.390;2022-08-03T07:05:15;6.57;;;3.37;;
10884;SDS011;5495;53.252;10.390;2022-08-03T07:07:43;4.00;;;3.60;;
10884;SDS011;5495;53.252;10.390;2022-08-03T07:10:10;5.33;;;3.43;;
10884;SDS011;5495;53.252;10.390;2022-08-03T07:12:39;3.67;;;3.17;;
10884;SDS011;5495;53.252;10.390;2022-08-03T07:15:07;3.57;;;3.27;;
10884;SDS011;5495;53.252;10.390;2022-08-03T07:17:36;4.60;;;3.40;;
10884;SDS011;5495;53.252;10.390;2022-08-03T07:20:05;3.63;;;3.23;;
10884;SDS011;5495;53.252;10.390;2022-08-03T07:22:33;4.77;;;3.10;;
10884;SDS011;5495;53.252;10.390;2022-08-03T07:25:01;3.43;;;3.13;;
10884;SDS011;5495;53.252;10.390;2022-08-03T07:27:29;4.63;;;2.67;;
10884;SDS011;5495;53.252;10.390;2022-08-03T07:29:57;6.57;;;3.17;;
10884;SDS011;5495;53.252;10.390;2022-08-03T07:32:25;3.53;;;3.07;;
10884;SDS011;5495;53.252;10.390;2022-08-03T07:34:57;5.17;;;2.70;;
10884;SDS011;5495;53.252;10.390;2022-08-03T07:37:24;2.97;;;2.67;;
10884;SDS011;5495;53.252;10.390;2022-08-03T07:39:51;4.83;;;2.50;;
10884;SDS011;5495;53.252;10.390;2022-08-03T07:42:19;4.50;;;2.50;;
10884;SDS011;5495;53.252;10.390;2022-08-03T07:44:47;5.37;;;2.63;;
10884;SDS011;5495;53.252;10.390;2022-08-03T07:47:17;4.07;;;2.20;;
10884;SDS011;5495;53.252;10.390;2022-08-03T07:49:45;2.97;;;2.30;;
10884;SDS011;5495;53.252;10.390;2022-08-03T07:52:14;4.00;;;2.30;;
10884;SDS011;5495;53.252;10.390;2022-08-03T07:54:59;2.73;;;2.13;;
10884;SDS011;5495;53.252;10.390;2022-08-03T07:57:26;3.03;;;2.40;;
10884;SDS011;5495;53.252;10.390;2022-08-03T07:59:53;2.77;;;2.50;;
10884;SDS011;5495;53.252;10.390;2022-08-03T08:02:22;2.70;;;2.33;;
10884;SDS011;5495;53.252;10.390;2022-08-03T08:04:50;3.93;;;2.17;;
10884;SDS011;5495;53.252;10.390;2022-08-03T08:07:18;2.63;;;2.40;;
10884;SDS011;5495;53.252;10.390;2022-08-03T08:09:47;2.90;;;2.30;;
10884;SDS011;5495;53.252;10.390;2022-08-03T08:12:17;4.47;;;2.50;;
10884;SDS011;5495;53.252;10.390;2022-08-03T08:14:47;3.40;;;2.50;;
10884;SDS011;5495;53.252;10.390;2022-08-03T08:17:17;3.70;;;2.60;;
10884;SDS011;5495;53.252;10.390;2022-08-03T08:19:45;6.07;;;2.60;;
10884;SDS011;5495;53.252;10.390;2022-08-03T08:22:12;2.87;;;2.47;;
10884;SDS011;5495;53.252;10.390;2022-08-03T08:24:42;3.53;;;1.90;;
10884;SDS011;5495;53.252;10.390;2022-08-03T08:27:12;3.43;;;2.07;;
10884;SDS011;5495;53.252;10.390;2022-08-03T08:29:40;5.63;;;2.33;;
10884;SDS011;5495;53.252;10.390;2022-08-03T08:32:08;3.60;;;2.13;;
10884;SDS011;5495;53.252;10.390;2022-08-03T08:34:35;4.37;;;2.33;;
10884;SDS011;5495;53.252;10.390;2022-08-03T08:37:03;3.60;;;2.00;;
10884;SDS011;5495;53.252;10.390;2022-08-03T08:39:33;3.03;;;1.80;;
10884;SDS011;5495;53.252;10.390;2022-08-03T08:42:02;3.30;;;2.37;;
10884;SDS011;5495;53.252;10.390;2022-08-03T08:44:29;3.77;;;2.03;;
10884;SDS011;5495;53.252;10.390;2022-08-03T08:46:57;3.00;;;2.13;;
10884;SDS011;5495;53.252;10.390;2022-08-03T08:49:28;9.13;;;2.30;;
10884;SDS011;5495;53.252;10.390;2022-08-03T08:51:59;3.43;;;2.00;;
10884;SDS011;5495;53.252;10.390;2022-08-03T08:54:28;3.10;;;1.77;;
10884;SDS011;5495;53.252;10.390;2022-08-03T08:56:57;7.50;;;2.20;;
10884;SDS011;5495;53.252;10.390;2022-08-03T08:59:31;4.53;;;1.97;;
10884;SDS011;5495;53.252;10.390;2022-08-03T09:01:59;3.23;;;2.23;;
10884;SDS011;5495;53.252;10.390;2022-08-03T09:04:29;6.90;;;2.37;;
10884;SDS011;5495;53.252;10.390;2022-08-03T09:06:57;7.13;;;2.07;;
10884;SDS011;5495;53.252;10.390;2022-08-03T09:09:25;4.27;;;2.40;;
10884;SDS011;5495;53.252;10.390;2022-08-03T09:11:55;2.40;;;2.17;;
10884;SDS011;5495;53.252;10.390;2022-08-03T09:14:24;2.63;;;2.10;;
10884;SDS011;5495;53.252;10.390;2022-08-03T09:16:54;5.73;;;2.17;;
10884;SDS011;5495;53.252;10.390;2022-08-03T09:19:27;5.50;;;2.20;;
10884;SDS011;5495;53.252;10.390;2022-08-03T09:22:06;5.23;;;2.43;;
10884;SDS011;5495;53.252;10.390;2022-08-03T09:24:35;6.33;;;2.20;;
10884;SDS011;5495;53.252;10.390;2022-08-03T09:27:04;3.33;;;2.10;;
10884;SDS011;5495;53.252;10.390;2022-08-03T09:29:39;3.77;;;2.10;;
10884;SDS011;5495;53.252;10.390;2022-08-03T09:32:07;4.10;;;2.10;;
10884;SDS011;5495;53.252;10.390;2022-08-03T09:34:38;4.00;;;1.93;;
10884;SDS011;5495;53.252;10.390;2022-08-03T09:37:07;7.57;;;2.30;;
10884;SDS011;5495;53.252;10.390;2022-08-03T09:39:40;4.07;;;2.03;;
10884;SDS011;5495;53.252;10.390;2022-08-03T09:42:10;3.37;;;1.93;;
10884;SDS011;5495;53.252;10.390;2022-08-03T09:44:41;3.40;;;2.20;;
10884;SDS011;5495;53.252;10.390;2022-08-03T09:47:10;5.13;;;2.07;;
10884;SDS011;5495;53.252;10.390;2022-08-03T09:49:39;4.17;;;2.13;;
10884;SDS011;5495;53.252;10.390;2022-08-03T09:52:11;2.83;;;2.00;;
10884;SDS011;5495;53.252;10.390;2022-08-03T09:54:39;6.13;;;2.10;;
10884;SDS011;5495;53.252;10.390;2022-08-03T09:57:07;5.43;;;1.90;;
10884;SDS011;5495;53.252;10.390;2022-08-03T09:59:47;3.07;;;2.13;;
10884;SDS011;5495;53.252;10.390;2022-08-03T10:02:19;4.57;;;2.17;;
10884;SDS011;5495;53.252;10.390;2022-08-03T10:04:48;7.37;;;2.23;;
10884;SDS011;5495;53.252;10.390;2022-08-03T10:07:18;4.00;;;2.10;;
10884;SDS011;5495;53.252;10.390;2022-08-03T10:09:53;3.87;;;1.87;;
10884;SDS011;5495;53.252;10.390;2022-08-03T10:12:22;4.33;;;2.00;;
10884;SDS011;5495;53.252;10.390;2022-08-03T10:14:52;5.37;;;2.23;;
10884;SDS011;5495;53.252;10.390;2022-08-03T10:17:21;2.70;;;2.20;;
10884;SDS011;5495;53.252;10.390;2022-08-03T10:19:50;5.37;;;2.20;;
10884;SDS011;5495;53.252;10.390;2022-08-03T10:22:18;6.77;;;2.27;;
10884;SDS011;5495;53.252;10.390;2022-08-03T10:24:52;3.73;;;1.90;;
10884;SDS011;5495;53.252;10.390;2022-08-03T10:27:22;7.43;;;2.30;;
10884;SDS011;5495;53.252;10.390;2022-08-03T10:29:52;4.57;;;2.10;;
10884;SDS011;5495;53.252;10.390;2022-08-03T10:32:21;2.80;;;1.90;;
10884;SDS011;5495;53.252;10.390;2022-08-03T10:34:57;7.23;;;2.23;;
10884;SDS011;5495;53.252;10.390;2022-08-03T10:37:31;4.80;;;2.43;;
10884;SDS011;5495;53.252;10.390;2022-08-03T10:40:03;5.50;;;1.93;;
10884;SDS011;5495;53.252;10.390;2022-08-03T10:42:33;3.67;;;2.13;;
10884;SDS011;5495;53.252;10.390;2022-08-03T10:45:05;4.73;;;1.87;;
10884;SDS011;5495;53.252;10.390;2022-08-03T10:47:35;5.17;;;2.07;;
10884;SDS011;5495;53.252;10.390;2022-08-03T10:50:05;2.90;;;1.70;;
10884;SDS011;5495;53.252;10.390;2022-08-03T10:52:34;6.90;;;2.20;;
10884;SDS011;5495;53.252;10.390;2022-08-03T10:55:01;5.63;;;2.00;;
10884;SDS011;5495;53.252;10.390;2022-08-03T10:58:06;5.20;;;1.60;;
10884;SDS011;5495;53.252;10.390;2022-08-03T11:00:47;4.63;;;2.17;;
10884;SDS011;5495;53.252;10.390;2022-08-03T11:03:15;4.70;;;1.80;;
10884;SDS011;5495;53.252;10.390;2022-08-03T11:05:43;3.53;;;1.80;;
10884;SDS011;5495;53.252;10.390;2022-08-03T11:08:19;3.03;;;2.10;;
10884;SDS011;5495;53.252;10.390;2022-08-03T11:10:49;3.70;;;2.00;;
10884;SDS011;5495;53.252;10.390;2022-08-03T11:13:19;2.90;;;2.10;;
10884;SDS011;5495;53.252;10.390;2022-08-03T11:15:50;2.60;;;1.93;;
10884;SDS011;5495;53.252;10.390;2022-08-03T11:18:20;5.00;;;1.97;;
10884;SDS011;5495;53.252;10.390;2022-08-03T11:20:49;4.30;;;2.20;;
10884;SDS011;5495;53.252;10.390;2022-08-03T11:23:18;6.73;;;2.10;;
10884;SDS011;5495;53.252;10.390;2022-08-03T11:26:12;6.33;;;2.10;;
10884;SDS011;5495;53.252;10.390;2022-08-03T11:28:42;5.47;;;2.17;;
10884;SDS011;5495;53.252;10.390;2022-08-03T11:34:14;8.00;;;2.33;;
10884;SDS011;5495;53.252;10.390;2022-08-03T11:39:48;4.87;;;2.20;;
10884;SDS011;5495;53.252;10.390;2022-08-03T11:42:41;4.40;;;2.07;;
10884;SDS011;5495;53.252;10.390;2022-08-03T11:45:11;3.63;;;1.90;;
10884;SDS011;5495;53.252;10.390;2022-08-03T11:47:40;3.07;;;1.80;;
10884;SDS011;5495;53.252;10.390;2022-08-03T11:50:08;3.53;;;2.00;;
10884;SDS011;5495;53.252;10.390;2022-08-03T11:52:40;4.50;;;1.87;;
10884;SDS011;5495;53.252;10.390;2022-08-03T11:55:14;4.43;;;1.67;;
10884;SDS011;5495;53.252;10.390;2022-08-03T11:57:46;3.70;;;1.80;;
10884;SDS011;5495;53.252;10.390;2022-08-03T12:00:24;4.33;;;1.80;;
10884;SDS011;5495;53.252;10.390;2022-08-03T12:02:55;4.87;;;1.93;;
10884;SDS011;5495;53.252;10.390;2022-08-03T12:05:34;5.77;;;1.93;;
10884;SDS011;5495;53.252;10.390;2022-08-03T12:08:06;3.47;;;1.90;;
10884;SDS011;5495;53.252;10.390;2022-08-03T12:10:35;4.37;;;2.00;;
10884;SDS011;5495;53.252;10.390;2022-08-03T12:13:04;4.77;;;1.83;;
10884;SDS011;5495;53.252;10.390;2022-08-03T12:15:33;5.37;;;2.00;;
10884;SDS011;5495;53.252;10.390;2022-08-03T12:18:11;8.60;;;1.83;;
10884;SDS011;5495;53.252;10.390;2022-08-03T12:20:40;5.40;;;1.73;;
10884;SDS011;5495;53.252;10.390;2022-08-03T12:23:10;4.40;;;1.90;;
10884;SDS011;5495;53.252;10.390;2022-08-03T12:25:39;5.73;;;2.10;;
10884;SDS011;5495;53.252;10.390;2022-08-03T12:28:09;3.23;;;1.70;;
10884;SDS011;5495;53.252;10.390;2022-08-03T12:30:40;2.73;;;1.40;;
10884;SDS011;5495;53.252;10.390;2022-08-03T12:33:14;4.60;;;1.70;;
10884;SDS011;5495;53.252;10.390;2022-08-03T12:35:44;4.03;;;1.60;;
10884;SDS011;5495;53.252;10.390;2022-08-03T12:38:12;4.83;;;1.80;;
10884;SDS011;5495;53.252;10.390;2022-08-03T12:40:44;4.20;;;1.77;;
10884;SDS011;5495;53.252;10.390;2022-08-03T12:43:12;4.20;;;1.87;;
10884;SDS011;5495;53.252;10.390;2022-08-03T12:45:40;3.13;;;1.60;;
10884;SDS011;5495;53.252;10.390;2022-08-03T12:48:08;4.17;;;1.80;;
10884;SDS011;5495;53.252;10.390;2022-08-03T12:50:38;1.70;;;1.40;;
10884;SDS011;5495;53.252;10.390;2022-08-03T12:53:07;3.90;;;1.60;;
10884;SDS011;5495;53.252;10.390;2022-08-03T12:55:35;3.87;;;2.00;;
10884;SDS011;5495;53.252;10.390;2022-08-03T12:58:04;5.70;;;2.10;;
10884;SDS011;5495;53.252;10.390;2022-08-03T13:00:37;3.67;;;1.73;;
10884;SDS011;5495;53.252;10.390;2022-08-03T13:03:06;3.50;;;1.60;;
10884;SDS011;5495;53.252;10.390;2022-08-03T13:05:42;4.03;;;1.57;;
10884;SDS011;5495;53.252;10.390;2022-08-03T13:08:16;3.50;;;1.70;;
10884;SDS011;5495;53.252;10.390;2022-08-03T13:10:45;1.80;;;1.53;;
10884;SDS011;5495;53.252;10.390;2022-08-03T13:13:14;4.97;;;1.93;;
10884;SDS011;5495;53.252;10.390;2022-08-03T13:15:42;5.27;;;1.63;;
10884;SDS011;5495;53.252;10.390;2022-08-03T13:18:09;5.17;;;1.80;;
10884;SDS011;5495;53.252;10.390;2022-08-03T13:20:37;3.53;;;1.93;;
10884;SDS011;5495;53.252;10.390;2022-08-03T13:23:05;3.97;;;1.70;;
10884;SDS011;5495;53.252;10.390;2022-08-03T13:25:33;5.73;;;1.90;;
10884;SDS011;5495;53.252;10.390;2022-08-03T13:28:00;4.57;;;1.80;;
10884;SDS011;5495;53.252;10.390;2022-08-03T13:30:30;3.33;;;1.60;;
10884;SDS011;5495;53.252;10.390;2022-08-03T13:32:58;3.40;;;1.67;;
10884;SDS011;5495;53.252;10.390;2022-08-03T13:35:25;4.53;;;1.80;;
10884;SDS011;5495;53.252;10.390;2022-08-03T13:37:52;3.13;;;1.63;;
10884;SDS011;5495;53.252;10.390;2022-08-03T13:40:21;5.50;;;1.70;;
10884;SDS011;5495;53.252;10.390;2022-08-03T13:42:49;5.27;;;1.70;;
10884;SDS011;5495;53.252;10.390;2022-08-03T13:45:16;4.07;;;1.53;;
10884;SDS011;5495;53.252;10.390;2022-08-03T13:47:44;6.03;;;1.43;;
10884;SDS011;5495;53.252;10.390;2022-08-03T13:50:12;5.63;;;1.90;;
10884;SDS011;5495;53.252;10.390;2022-08-03T13:52:39;3.80;;;1.53;;
10884;SDS011;5495;53.252;10.390;2022-08-03T13:55:07;3.73;;;1.40;;
10884;SDS011;5495;53.252;10.390;2022-08-03T13:57:36;3.47;;;1.70;;
10884;SDS011;5495;53.252;10.390;2022-08-03T14:00:05;8.10;;;1.70;;
10884;SDS011;5495;53.252;10.390;2022-08-03T14:02:33;6.47;;;1.77;;
10884;SDS011;5495;53.252;10.390;2022-08-03T14:05:02;4.57;;;2.60;;
10884;SDS011;5495;53.252;10.390;2022-08-03T14:07:30;2.37;;;1.83;;
10884;SDS011;5495;53.252;10.390;2022-08-03T14:09:58;3.20;;;1.80;;
10884;SDS011;5495;53.252;10.390;2022-08-03T14:12:26;3.93;;;1.60;;
10884;SDS011;5495;53.252;10.390;2022-08-03T14:14:55;3.53;;;1.87;;
10884;SDS011;5495;53.252;10.390;2022-08-03T14:17:28;3.43;;;1.80;;
10884;SDS011;5495;53.252;10.390;2022-08-03T14:19:56;4.23;;;1.50;;
10884;SDS011;5495;53.252;10.390;2022-08-03T14:22:25;3.33;;;1.60;;
10884;SDS011;5495;53.252;10.390;2022-08-03T14:24:54;6.27;;;1.67;;
10884;SDS011;5495;53.252;10.390;2022-08-03T14:27:22;7.27;;;1.83;;
10884;SDS011;5495;53.252;10.390;2022-08-03T14:29:49;3.47;;;1.80;;
10884;SDS011;5495;53.252;10.390;2022-08-03T14:32:18;5.77;;;1.57;;
10884;SDS011;5495;53.252;10.390;2022-08-03T14:34:46;4.73;;;1.70;;
10884;SDS011;5495;53.252;10.390;2022-08-03T14:37:14;8.57;;;1.60;;
10884;SDS011;5495;53.252;10.390;2022-08-03T14:39:42;3.13;;;1.63;;
10884;SDS011;5495;53.252;10.390;2022-08-03T14:42:11;4.37;;;1.80;;
10884;SDS011;5495;53.252;10.390;2022-08-03T14:44:38;2.77;;;1.63;;
10884;SDS011;5495;53.252;10.390;2022-08-03T14:47:07;7.17;;;1.90;;
10884;SDS011;5495;53.252;10.390;2022-08-03T14:49:36;4.63;;;1.90;;
10884;SDS011;5495;53.252;10.390;2022-08-03T14:52:03;2.93;;;1.70;;
10884;SDS011;5495;53.252;10.390;2022-08-03T14:54:31;3.33;;;1.53;;
10884;SDS011;5495;53.252;10.390;2022-08-03T14:56:59;2.53;;;1.60;;
10884;SDS011;5495;53.252;10.390;2022-08-03T14:59:27;5.33;;;1.60;;
10884;SDS011;5495;53.252;10.390;2022-08-03T15:01:54;7.10;;;1.90;;
10884;SDS011;5495;53.252;10.390;2022-08-03T15:04:22;3.50;;;1.70;;
10884;SDS011;5495;53.252;10.390;2022-08-03T15:06:51;3.53;;;1.53;;
10884;SDS011;5495;53.252;10.390;2022-08-03T15:09:19;5.77;;;1.83;;